sensor_id;sensor_type;location;lat;lon;timestamp;temperature;humidity
51383;DHT22;37475;43.358;1.248;2023-07-13T00:01:54;20.80;85.40
51383;DHT22;37475;43.358;1.248;2023-07-13T00:04:21;20.70;85.50
51383;DHT22;37475;43.358;1.248;2023-07-13T00:06:51;20.70;85.70
51383;DHT22;37475;43.358;1.248;2023-07-13T00:09:19;20.60;86.00
51383;DHT22;37475;43.358;1.248;2023-07-13T00:11:50;20.50;86.20
51383;DHT22;37475;43.358;1.248;2023-07-13T00:14:17;20.50;86.30
51383;DHT22;37475;43.358;1.248;2023-07-13T00:16:43;20.40;86.50
51383;DHT22;37475;43.358;1.248;2023-07-13T00:19:11;20.30;86.70
51383;DHT22;37475;43.358;1.248;2023-07-13T00:21:38;20.30;87.10
51383;DHT22;37475;43.358;1.248;2023-07-13T00:24:06;20.20;87.20
51383;DHT22;37475;43.358;1.248;2023-07-13T00:26:33;20.20;87.40
51383;DHT22;37475;43.358;1.248;2023-07-13T00:28:59;20.20;87.20
51383;DHT22;37475;43.358;1.248;2023-07-13T00:31:25;20.30;87.20
51383;DHT22;37475;43.358;1.248;2023-07-13T00:33:51;20.30;87.10
51383;DHT22;37475;43.358;1.248;2023-07-13T00:36:17;20.30;87.20
51383;DHT22;37475;43.358;1.248;2023-07-13T00:38:43;20.40;87.20
51383;DHT22;37475;43.358;1.248;2023-07-13T00:41:09;20.40;86.90
51383;DHT22;37475;43.358;1.248;2023-07-13T00:43:35;20.50;86.90
51383;DHT22;37475;43.358;1.248;2023-07-13T00:48:32;20.60;86.70
51383;DHT22;37475;43.358;1.248;2023-07-13T00:51:00;20.60;86.50
51383;DHT22;37475;43.358;1.248;2023-07-13T00:53:28;20.60;86.60
51383;DHT22;37475;43.358;1.248;2023-07-13T00:55:56;20.50;86.70
51383;DHT22;37475;43.358;1.248;2023-07-13T00:58:25;20.40;86.90
51383;DHT22;37475;43.358;1.248;2023-07-13T01:00:52;20.50;86.90
51383;DHT22;37475;43.358;1.248;2023-07-13T01:03:19;20.40;87.10
51383;DHT22;37475;43.358;1.248;2023-07-13T01:05:48;20.40;87.30
51383;DHT22;37475;43.358;1.248;2023-07-13T01:08:15;20.30;87.50
51383;DHT22;37475;43.358;1.248;2023-07-13T01:10:50;20.30;87.70
51383;DHT22;37475;43.358;1.248;2023-07-13T01:13:17;20.30;87.90
51383;DHT22;37475;43.358;1.248;2023-07-13T01:15:45;20.30;87.90
51383;DHT22;37475;43.358;1.248;2023-07-13T01:18:16;20.20;87.90
51383;DHT22;37475;43.358;1.248;2023-07-13T01:20:58;20.20;88.00
51383;DHT22;37475;43.358;1.248;2023-07-13T01:23:26;20.20;87.90
51383;DHT22;37475;43.358;1.248;2023-07-13T01:25:53;20.20;87.80
51383;DHT22;37475;43.358;1.248;2023-07-13T01:28:21;20.30;87.80
51383;DHT22;37475;43.358;1.248;2023-07-13T01:30:48;20.30;87.70
51383;DHT22;37475;43.358;1.248;2023-07-13T01:33:16;20.30;87.80
51383;DHT22;37475;43.358;1.248;2023-07-13T01:35:44;20.30;87.90
51383;DHT22;37475;43.358;1.248;2023-07-13T01:38:13;20.30;87.90
51383;DHT22;37475;43.358;1.248;2023-07-13T01:40:40;20.30;87.80
51383;DHT22;37475;43.358;1.248;2023-07-13T01:43:06;20.30;87.70
51383;DHT22;37475;43.358;1.248;2023-07-13T01:45:32;20.40;87.60
51383;DHT22;37475;43.358;1.248;2023-07-13T01:47:58;20.40;87.60
51383;DHT22;37475;43.358;1.248;2023-07-13T01:50:24;20.30;87.80
51383;DHT22;37475;43.358;1.248;2023-07-13T01:52:51;20.30;88.00
51383;DHT22;37475;43.358;1.248;2023-07-13T01:55:17;20.30;88.00
51383;DHT22;37475;43.358;1.248;2023-07-13T01:57:43;20.40;87.90
51383;DHT22;37475;43.358;1.248;2023-07-13T02:00:10;20.30;87.90
51383;DHT22;37475;43.358;1.248;2023-07-13T02:02:36;20.40;87.80
51383;DHT22;37475;43.358;1.248;2023-07-13T02:05:02;20.30;87.80
51383;DHT22;37475;43.358;1.248;2023-07-13T02:07:28;20.30;87.80
51383;DHT22;37475;43.358;1.248;2023-07-13T02:09:54;20.30;87.90
51383;DHT22;37475;43.358;1.248;2023-07-13T02:12:20;20.20;88.00
51383;DHT22;37475;43.358;1.248;2023-07-13T02:14:46;20.10;88.00
51383;DHT22;37475;43.358;1.248;2023-07-13T02:17:13;20.10;87.70
51383;DHT22;37475;43.358;1.248;2023-07-13T02:19:39;20.10;87.80
51383;DHT22;37475;43.358;1.248;2023-07-13T02:22:05;20.10;87.50
51383;DHT22;37475;43.358;1.248;2023-07-13T02:24:31;20.10;87.40
51383;DHT22;37475;43.358;1.248;2023-07-13T02:26:57;20.00;86.80
51383;DHT22;37475;43.358;1.248;2023-07-13T02:29:23;20.00;86.30
51383;DHT22;37475;43.358;1.248;2023-07-13T02:31:49;19.90;86.10
51383;DHT22;37475;43.358;1.248;2023-07-13T02:34:14;19.90;85.70
51383;DHT22;37475;43.358;1.248;2023-07-13T02:36:40;19.80;85.70
51383;DHT22;37475;43.358;1.248;2023-07-13T02:39:06;19.80;85.60
51383;DHT22;37475;43.358;1.248;2023-07-13T02:41:32;19.70;85.50
51383;DHT22;37475;43.358;1.248;2023-07-13T02:43:59;19.70;85.50
51383;DHT22;37475;43.358;1.248;2023-07-13T02:46:38;19.70;85.30
51383;DHT22;37475;43.358;1.248;2023-07-13T02:49:04;19.70;84.90
51383;DHT22;37475;43.358;1.248;2023-07-13T02:51:30;19.60;84.80
51383;DHT22;37475;43.358;1.248;2023-07-13T02:53:56;19.60;84.40
51383;DHT22;37475;43.358;1.248;2023-07-13T02:56:24;19.60;84.40
51383;DHT22;37475;43.358;1.248;2023-07-13T02:58:52;19.50;84.50
51383;DHT22;37475;43.358;1.248;2023-07-13T03:01:19;19.50;83.90
51383;DHT22;37475;43.358;1.248;2023-07-13T03:03:50;19.50;83.20
51383;DHT22;37475;43.358;1.248;2023-07-13T03:06:17;19.50;83.10
51383;DHT22;37475;43.358;1.248;2023-07-13T03:08:44;19.50;82.80
51383;DHT22;37475;43.358;1.248;2023-07-13T03:11:15;19.50;82.60
51383;DHT22;37475;43.358;1.248;2023-07-13T03:13:43;19.60;82.50
51383;DHT22;37475;43.358;1.248;2023-07-13T03:16:10;19.50;82.40
51383;DHT22;37475;43.358;1.248;2023-07-13T03:18:36;19.50;82.20
51383;DHT22;37475;43.358;1.248;2023-07-13T03:21:03;19.50;82.00
51383;DHT22;37475;43.358;1.248;2023-07-13T03:23:29;19.50;82.40
51383;DHT22;37475;43.358;1.248;2023-07-13T03:26:14;19.50;82.10
51383;DHT22;37475;43.358;1.248;2023-07-13T03:28:41;19.40;82.30
51383;DHT22;37475;43.358;1.248;2023-07-13T03:31:14;19.30;82.50
51383;DHT22;37475;43.358;1.248;2023-07-13T03:33:44;19.20;82.60
51383;DHT22;37475;43.358;1.248;2023-07-13T03:36:14;19.20;82.80
51383;DHT22;37475;43.358;1.248;2023-07-13T03:38:48;19.20;82.50
51383;DHT22;37475;43.358;1.248;2023-07-13T03:41:16;19.20;82.10
51383;DHT22;37475;43.358;1.248;2023-07-13T03:43:42;19.20;81.90
51383;DHT22;37475;43.358;1.248;2023-07-13T03:46:09;19.20;81.70
51383;DHT22;37475;43.358;1.248;2023-07-13T03:48:35;19.10;81.00
51383;DHT22;37475;43.358;1.248;2023-07-13T03:51:01;19.10;80.70
51383;DHT22;37475;43.358;1.248;2023-07-13T03:53:27;19.20;80.30
51383;DHT22;37475;43.358;1.248;2023-07-13T03:55:53;19.20;80.30
51383;DHT22;37475;43.358;1.248;2023-07-13T03:58:34;19.20;79.90
51383;DHT22;37475;43.358;1.248;2023-07-13T04:01:06;19.10;80.10
51383;DHT22;37475;43.358;1.248;2023-07-13T04:03:33;19.20;80.50
51383;DHT22;37475;43.358;1.248;2023-07-13T04:06:00;19.20;80.30
51383;DHT22;37475;43.358;1.248;2023-07-13T04:08:29;19.20;80.10
51383;DHT22;37475;43.358;1.248;2023-07-13T04:10:56;19.10;80.30
51383;DHT22;37475;43.358;1.248;2023-07-13T04:13:24;19.10;80.50
51383;DHT22;37475;43.358;1.248;2023-07-13T04:15:51;19.10;80.20
51383;DHT22;37475;43.358;1.248;2023-07-13T04:18:17;19.20;80.60
51383;DHT22;37475;43.358;1.248;2023-07-13T04:20:46;19.30;80.80
51383;DHT22;37475;43.358;1.248;2023-07-13T04:23:12;19.30;80.70
51383;DHT22;37475;43.358;1.248;2023-07-13T04:25:39;19.40;80.50
51383;DHT22;37475;43.358;1.248;2023-07-13T04:28:06;19.40;80.50
51383;DHT22;37475;43.358;1.248;2023-07-13T04:30:32;19.50;80.30
51383;DHT22;37475;43.358;1.248;2023-07-13T04:32:58;19.40;80.30
51383;DHT22;37475;43.358;1.248;2023-07-13T04:35:23;19.50;80.20
51383;DHT22;37475;43.358;1.248;2023-07-13T04:37:49;19.50;80.20
51383;DHT22;37475;43.358;1.248;2023-07-13T04:40:19;19.50;80.40
51383;DHT22;37475;43.358;1.248;2023-07-13T04:42:46;19.30;80.60
51383;DHT22;37475;43.358;1.248;2023-07-13T04:45:14;19.10;81.20
51383;DHT22;37475;43.358;1.248;2023-07-13T04:47:40;19.10;82.00
51383;DHT22;37475;43.358;1.248;2023-07-13T04:50:07;19.00;82.30
51383;DHT22;37475;43.358;1.248;2023-07-13T04:52:34;19.00;82.40
51383;DHT22;37475;43.358;1.248;2023-07-13T04:55:00;19.00;81.70
51383;DHT22;37475;43.358;1.248;2023-07-13T04:57:27;18.80;81.00
51383;DHT22;37475;43.358;1.248;2023-07-13T04:59:53;18.80;81.30
51383;DHT22;37475;43.358;1.248;2023-07-13T05:02:20;18.80;81.50
51383;DHT22;37475;43.358;1.248;2023-07-13T05:04:48;18.80;81.30
51383;DHT22;37475;43.358;1.248;2023-07-13T05:07:14;18.80;81.20
51383;DHT22;37475;43.358;1.248;2023-07-13T05:09:39;18.80;81.00
51383;DHT22;37475;43.358;1.248;2023-07-13T05:12:07;18.80;81.40
51383;DHT22;37475;43.358;1.248;2023-07-13T05:14:34;18.70;81.70
51383;DHT22;37475;43.358;1.248;2023-07-13T05:17:00;18.70;81.80
51383;DHT22;37475;43.358;1.248;2023-07-13T05:19:26;18.70;82.10
51383;DHT22;37475;43.358;1.248;2023-07-13T05:21:52;18.60;83.00
51383;DHT22;37475;43.358;1.248;2023-07-13T05:24:18;18.60;83.10
51383;DHT22;37475;43.358;1.248;2023-07-13T05:26:44;18.60;83.10
51383;DHT22;37475;43.358;1.248;2023-07-13T05:29:10;18.60;83.10
51383;DHT22;37475;43.358;1.248;2023-07-13T05:31:36;18.60;82.90
51383;DHT22;37475;43.358;1.248;2023-07-13T05:34:02;18.60;82.60
51383;DHT22;37475;43.358;1.248;2023-07-13T05:36:27;18.60;82.50
51383;DHT22;37475;43.358;1.248;2023-07-13T05:38:53;18.60;82.40
51383;DHT22;37475;43.358;1.248;2023-07-13T05:41:19;18.80;82.40
51383;DHT22;37475;43.358;1.248;2023-07-13T05:43:45;18.90;81.40
51383;DHT22;37475;43.358;1.248;2023-07-13T05:46:11;19.00;80.90
51383;DHT22;37475;43.358;1.248;2023-07-13T05:48:37;18.90;81.00
51383;DHT22;37475;43.358;1.248;2023-07-13T05:51:03;18.90;81.00
51383;DHT22;37475;43.358;1.248;2023-07-13T05:53:28;18.80;80.90
51383;DHT22;37475;43.358;1.248;2023-07-13T05:55:55;18.70;81.70
51383;DHT22;37475;43.358;1.248;2023-07-13T05:58:21;18.70;81.60
51383;DHT22;37475;43.358;1.248;2023-07-13T06:00:48;18.60;81.10
51383;DHT22;37475;43.358;1.248;2023-07-13T06:03:14;18.60;81.60
51383;DHT22;37475;43.358;1.248;2023-07-13T06:05:42;18.70;81.70
51383;DHT22;37475;43.358;1.248;2023-07-13T06:08:08;18.80;81.10
51383;DHT22;37475;43.358;1.248;2023-07-13T06:10:35;18.70;81.20
51383;DHT22;37475;43.358;1.248;2023-07-13T06:13:01;18.80;81.10
51383;DHT22;37475;43.358;1.248;2023-07-13T06:15:28;18.80;80.70
51383;DHT22;37475;43.358;1.248;2023-07-13T06:17:54;18.80;80.40
51383;DHT22;37475;43.358;1.248;2023-07-13T06:20:20;18.80;80.70
51383;DHT22;37475;43.358;1.248;2023-07-13T06:22:45;18.80;81.00
51383;DHT22;37475;43.358;1.248;2023-07-13T06:25:11;18.80;80.40
51383;DHT22;37475;43.358;1.248;2023-07-13T06:27:37;18.90;79.90
51383;DHT22;37475;43.358;1.248;2023-07-13T06:30:03;18.80;79.30
51383;DHT22;37475;43.358;1.248;2023-07-13T06:32:30;18.70;79.60
51383;DHT22;37475;43.358;1.248;2023-07-13T06:34:55;18.80;79.70
51383;DHT22;37475;43.358;1.248;2023-07-13T06:37:21;19.00;79.60
51383;DHT22;37475;43.358;1.248;2023-07-13T06:39:47;19.10;79.30
51383;DHT22;37475;43.358;1.248;2023-07-13T06:42:13;19.10;78.70
51383;DHT22;37475;43.358;1.248;2023-07-13T06:44:38;18.80;79.00
51383;DHT22;37475;43.358;1.248;2023-07-13T06:47:04;18.80;79.60
51383;DHT22;37475;43.358;1.248;2023-07-13T06:49:31;18.90;80.10
51383;DHT22;37475;43.358;1.248;2023-07-13T06:51:56;19.50;80.30
51383;DHT22;37475;43.358;1.248;2023-07-13T06:54:22;19.40;77.60
51383;DHT22;37475;43.358;1.248;2023-07-13T06:56:48;19.30;77.40
51383;DHT22;37475;43.358;1.248;2023-07-13T06:59:14;19.20;77.80
51383;DHT22;37475;43.358;1.248;2023-07-13T07:01:39;19.10;78.20
51383;DHT22;37475;43.358;1.248;2023-07-13T07:04:05;19.10;78.20
51383;DHT22;37475;43.358;1.248;2023-07-13T07:06:31;19.10;78.40
51383;DHT22;37475;43.358;1.248;2023-07-13T07:08:57;19.20;78.80
51383;DHT22;37475;43.358;1.248;2023-07-13T07:11:24;19.10;78.70
51383;DHT22;37475;43.358;1.248;2023-07-13T07:13:52;19.20;79.10
51383;DHT22;37475;43.358;1.248;2023-07-13T07:16:19;19.10;78.30
51383;DHT22;37475;43.358;1.248;2023-07-13T07:18:45;19.10;78.50
51383;DHT22;37475;43.358;1.248;2023-07-13T07:21:13;19.10;78.30
51383;DHT22;37475;43.358;1.248;2023-07-13T07:23:39;19.10;78.80
51383;DHT22;37475;43.358;1.248;2023-07-13T07:26:05;19.30;77.70
51383;DHT22;37475;43.358;1.248;2023-07-13T07:28:34;19.40;77.50
51383;DHT22;37475;43.358;1.248;2023-07-13T07:30:59;19.50;77.10
51383;DHT22;37475;43.358;1.248;2023-07-13T07:33:25;19.40;76.80
51383;DHT22;37475;43.358;1.248;2023-07-13T07:35:52;19.30;77.60
51383;DHT22;37475;43.358;1.248;2023-07-13T07:38:18;19.60;77.50
51383;DHT22;37475;43.358;1.248;2023-07-13T07:40:43;19.70;76.60
51383;DHT22;37475;43.358;1.248;2023-07-13T07:43:11;19.90;76.80
51383;DHT22;37475;43.358;1.248;2023-07-13T07:45:39;19.80;76.10
51383;DHT22;37475;43.358;1.248;2023-07-13T07:48:06;19.90;76.20
51383;DHT22;37475;43.358;1.248;2023-07-13T07:50:32;20.00;75.80
51383;DHT22;37475;43.358;1.248;2023-07-13T07:52:59;20.10;75.40
51383;DHT22;37475;43.358;1.248;2023-07-13T07:55:25;20.10;75.80
51383;DHT22;37475;43.358;1.248;2023-07-13T07:57:52;20.00;75.80
51383;DHT22;37475;43.358;1.248;2023-07-13T08:00:18;19.80;76.30
51383;DHT22;37475;43.358;1.248;2023-07-13T08:02:44;19.60;76.80
51383;DHT22;37475;43.358;1.248;2023-07-13T08:05:10;19.60;77.40
51383;DHT22;37475;43.358;1.248;2023-07-13T08:07:37;19.50;77.50
51383;DHT22;37475;43.358;1.248;2023-07-13T08:10:05;19.60;76.60
51383;DHT22;37475;43.358;1.248;2023-07-13T08:12:38;19.80;76.40
51383;DHT22;37475;43.358;1.248;2023-07-13T08:15:06;19.70;75.90
51383;DHT22;37475;43.358;1.248;2023-07-13T08:17:35;19.60;76.50
51383;DHT22;37475;43.358;1.248;2023-07-13T08:20:01;19.60;76.80
51383;DHT22;37475;43.358;1.248;2023-07-13T08:22:27;19.70;77.00
51383;DHT22;37475;43.358;1.248;2023-07-13T08:24:53;19.80;77.10
51383;DHT22;37475;43.358;1.248;2023-07-13T08:27:23;19.90;76.30
51383;DHT22;37475;43.358;1.248;2023-07-13T08:29:50;20.10;76.50
51383;DHT22;37475;43.358;1.248;2023-07-13T08:32:17;20.00;76.20
51383;DHT22;37475;43.358;1.248;2023-07-13T08:34:44;20.00;76.50
51383;DHT22;37475;43.358;1.248;2023-07-13T08:37:10;20.10;75.50
51383;DHT22;37475;43.358;1.248;2023-07-13T08:39:36;20.10;74.90
51383;DHT22;37475;43.358;1.248;2023-07-13T08:42:22;20.20;74.10
51383;DHT22;37475;43.358;1.248;2023-07-13T08:45:28;20.60;73.70
51383;DHT22;37475;43.358;1.248;2023-07-13T08:48:04;20.60;72.60
51383;DHT22;37475;43.358;1.248;2023-07-13T08:50:57;20.60;72.80
51383;DHT22;37475;43.358;1.248;2023-07-13T08:53:34;21.00;71.80
51383;DHT22;37475;43.358;1.248;2023-07-13T08:56:04;21.10;70.80
51383;DHT22;37475;43.358;1.248;2023-07-13T08:58:31;21.50;71.80
51383;DHT22;37475;43.358;1.248;2023-07-13T09:01:20;21.50;70.70
51383;DHT22;37475;43.358;1.248;2023-07-13T09:04:06;21.60;69.10
51383;DHT22;37475;43.358;1.248;2023-07-13T09:06:58;21.70;68.40
51383;DHT22;37475;43.358;1.248;2023-07-13T09:18:02;22.00;67.60
51383;DHT22;37475;43.358;1.248;2023-07-13T09:24:22;22.50;66.30
51383;DHT22;37475;43.358;1.248;2023-07-13T09:26:55;22.30;67.60
51383;DHT22;37475;43.358;1.248;2023-07-13T09:29:33;22.30;68.40
51383;DHT22;37475;43.358;1.248;2023-07-13T09:32:06;22.00;66.30
51383;DHT22;37475;43.358;1.248;2023-07-13T09:34:33;21.60;68.70
51383;DHT22;37475;43.358;1.248;2023-07-13T09:36:59;22.00;68.50
51383;DHT22;37475;43.358;1.248;2023-07-13T09:39:32;22.00;68.20
51383;DHT22;37475;43.358;1.248;2023-07-13T09:42:16;22.30;66.50
51383;DHT22;37475;43.358;1.248;2023-07-13T09:47:24;23.00;65.30
51383;DHT22;37475;43.358;1.248;2023-07-13T09:50:09;22.90;65.00
51383;DHT22;37475;43.358;1.248;2023-07-13T09:55:27;23.20;65.60
51383;DHT22;37475;43.358;1.248;2023-07-13T10:00:36;22.70;66.10
51383;DHT22;37475;43.358;1.248;2023-07-13T10:03:24;23.10;64.00
51383;DHT22;37475;43.358;1.248;2023-07-13T10:05:52;23.40;64.70
51383;DHT22;37475;43.358;1.248;2023-07-13T10:08:25;23.20;64.20
51383;DHT22;37475;43.358;1.248;2023-07-13T10:11:01;23.20;65.10
51383;DHT22;37475;43.358;1.248;2023-07-13T10:13:51;23.10;65.40
51383;DHT22;37475;43.358;1.248;2023-07-13T10:16:15;23.00;65.30
51383;DHT22;37475;43.358;1.248;2023-07-13T10:19:02;22.70;66.20
51383;DHT22;37475;43.358;1.248;2023-07-13T10:21:39;22.20;66.50
51383;DHT22;37475;43.358;1.248;2023-07-13T10:29:59;22.20;68.00
51383;DHT22;37475;43.358;1.248;2023-07-13T10:32:28;22.10;68.20
51383;DHT22;37475;43.358;1.248;2023-07-13T10:34:54;22.10;68.00
51383;DHT22;37475;43.358;1.248;2023-07-13T10:37:26;22.10;69.10
51383;DHT22;37475;43.358;1.248;2023-07-13T10:39:56;22.00;68.90
51383;DHT22;37475;43.358;1.248;2023-07-13T10:42:40;21.80;68.80
51383;DHT22;37475;43.358;1.248;2023-07-13T10:45:31;22.00;68.20
51383;DHT22;37475;43.358;1.248;2023-07-13T10:48:00;22.10;68.30
51383;DHT22;37475;43.358;1.248;2023-07-13T10:50:28;22.20;67.00
51383;DHT22;37475;43.358;1.248;2023-07-13T10:53:17;22.60;66.20
51383;DHT22;37475;43.358;1.248;2023-07-13T10:58:21;22.70;66.20
51383;DHT22;37475;43.358;1.248;2023-07-13T11:01:08;23.00;66.10
51383;DHT22;37475;43.358;1.248;2023-07-13T11:03:50;23.10;64.80
51383;DHT22;37475;43.358;1.248;2023-07-13T11:11:56;23.50;63.40
51383;DHT22;37475;43.358;1.248;2023-07-13T11:14:37;23.00;63.70
51383;DHT22;37475;43.358;1.248;2023-07-13T11:22:42;23.40;63.80
51383;DHT22;37475;43.358;1.248;2023-07-13T11:31:00;23.30;62.20
51383;DHT22;37475;43.358;1.248;2023-07-13T11:36:07;22.90;65.30
51383;DHT22;37475;43.358;1.248;2023-07-13T11:38:40;23.00;66.00
51383;DHT22;37475;43.358;1.248;2023-07-13T11:41:22;23.40;64.40
51383;DHT22;37475;43.358;1.248;2023-07-13T11:43:50;23.10;65.00
51383;DHT22;37475;43.358;1.248;2023-07-13T11:46:27;23.20;64.30
51383;DHT22;37475;43.358;1.248;2023-07-13T11:48:54;23.20;64.80
51383;DHT22;37475;43.358;1.248;2023-07-13T11:51:30;23.00;65.50
51383;DHT22;37475;43.358;1.248;2023-07-13T11:54:01;23.50;63.30
51383;DHT22;37475;43.358;1.248;2023-07-13T11:56:29;24.20;62.40
51383;DHT22;37475;43.358;1.248;2023-07-13T11:58:59;24.30;61.30
51383;DHT22;37475;43.358;1.248;2023-07-13T12:01:31;24.20;61.30
51383;DHT22;37475;43.358;1.248;2023-07-13T12:04:28;24.30;61.10
51383;DHT22;37475;43.358;1.248;2023-07-13T12:07:17;24.30;60.20
51383;DHT22;37475;43.358;1.248;2023-07-13T12:09:43;24.80;60.30
51383;DHT22;37475;43.358;1.248;2023-07-13T12:12:14;25.20;58.50
51383;DHT22;37475;43.358;1.248;2023-07-13T12:14:43;25.80;57.40
51383;DHT22;37475;43.358;1.248;2023-07-13T12:17:18;25.20;59.00
51383;DHT22;37475;43.358;1.248;2023-07-13T12:19:47;24.10;60.50
51383;DHT22;37475;43.358;1.248;2023-07-13T12:22:17;23.80;62.00
51383;DHT22;37475;43.358;1.248;2023-07-13T12:24:45;24.20;64.10
51383;DHT22;37475;43.358;1.248;2023-07-13T12:27:24;24.60;61.00
51383;DHT22;37475;43.358;1.248;2023-07-13T12:30:01;24.30;62.20
51383;DHT22;37475;43.358;1.248;2023-07-13T12:32:31;24.90;61.10
51383;DHT22;37475;43.358;1.248;2023-07-13T12:35:17;25.60;58.20
51383;DHT22;37475;43.358;1.248;2023-07-13T12:37:46;25.30;57.70
51383;DHT22;37475;43.358;1.248;2023-07-13T12:40:20;24.90;58.40
51383;DHT22;37475;43.358;1.248;2023-07-13T12:42:51;24.70;60.20
51383;DHT22;37475;43.358;1.248;2023-07-13T12:45:25;25.00;58.20
51383;DHT22;37475;43.358;1.248;2023-07-13T12:47:58;25.00;59.40
51383;DHT22;37475;43.358;1.248;2023-07-13T12:50:41;25.50;58.10
51383;DHT22;37475;43.358;1.248;2023-07-13T12:53:17;25.30;56.00
51383;DHT22;37475;43.358;1.248;2023-07-13T12:55:54;25.50;57.00
51383;DHT22;37475;43.358;1.248;2023-07-13T12:58:37;25.80;55.90
51383;DHT22;37475;43.358;1.248;2023-07-13T13:01:07;25.30;57.20
51383;DHT22;37475;43.358;1.248;2023-07-13T13:03:37;25.50;57.90
51383;DHT22;37475;43.358;1.248;2023-07-13T13:06:17;25.50;58.00
51383;DHT22;37475;43.358;1.248;2023-07-13T13:08:51;25.30;58.70
51383;DHT22;37475;43.358;1.248;2023-07-13T13:11:20;25.30;57.70
51383;DHT22;37475;43.358;1.248;2023-07-13T13:13:48;25.40;57.50
51383;DHT22;37475;43.358;1.248;2023-07-13T13:16:34;25.60;57.20
51383;DHT22;37475;43.358;1.248;2023-07-13T13:19:18;25.60;59.50
51383;DHT22;37475;43.358;1.248;2023-07-13T13:21:53;24.80;59.20
51383;DHT22;37475;43.358;1.248;2023-07-13T13:24:23;25.10;59.30
51383;DHT22;37475;43.358;1.248;2023-07-13T13:26:52;25.30;58.30
51383;DHT22;37475;43.358;1.248;2023-07-13T13:29:20;25.60;57.10
51383;DHT22;37475;43.358;1.248;2023-07-13T13:31:49;25.80;57.10
51383;DHT22;37475;43.358;1.248;2023-07-13T13:34:17;25.20;58.70
51383;DHT22;37475;43.358;1.248;2023-07-13T13:36:44;25.10;58.00
51383;DHT22;37475;43.358;1.248;2023-07-13T13:42:02;25.00;58.50
51383;DHT22;37475;43.358;1.248;2023-07-13T13:44:28;25.10;59.20
51383;DHT22;37475;43.358;1.248;2023-07-13T13:46:55;25.00;59.80
51383;DHT22;37475;43.358;1.248;2023-07-13T13:49:24;25.10;58.90
51383;DHT22;37475;43.358;1.248;2023-07-13T13:51:51;25.30;57.90
51383;DHT22;37475;43.358;1.248;2023-07-13T13:54:19;25.10;57.50
51383;DHT22;37475;43.358;1.248;2023-07-13T13:56:49;24.90;58.90
51383;DHT22;37475;43.358;1.248;2023-07-13T13:59:16;25.00;57.80
51383;DHT22;37475;43.358;1.248;2023-07-13T14:01:44;24.60;59.10
51383;DHT22;37475;43.358;1.248;2023-07-13T14:04:21;24.60;59.50
51383;DHT22;37475;43.358;1.248;2023-07-13T14:06:47;24.60;59.80
51383;DHT22;37475;43.358;1.248;2023-07-13T14:09:16;24.60;59.90
51383;DHT22;37475;43.358;1.248;2023-07-13T14:11:44;24.50;61.80
51383;DHT22;37475;43.358;1.248;2023-07-13T14:14:21;24.30;60.40
51383;DHT22;37475;43.358;1.248;2023-07-13T14:16:49;24.30;61.60
51383;DHT22;37475;43.358;1.248;2023-07-13T14:19:20;24.70;59.70
51383;DHT22;37475;43.358;1.248;2023-07-13T14:21:46;24.50;61.90
51383;DHT22;37475;43.358;1.248;2023-07-13T14:24:13;24.50;60.90
51383;DHT22;37475;43.358;1.248;2023-07-13T14:26:40;24.60;60.00
51383;DHT22;37475;43.358;1.248;2023-07-13T14:29:15;24.50;61.50
51383;DHT22;37475;43.358;1.248;2023-07-13T14:31:43;24.50;60.90
51383;DHT22;37475;43.358;1.248;2023-07-13T14:34:13;24.50;61.50
51383;DHT22;37475;43.358;1.248;2023-07-13T14:36:45;24.50;61.10
51383;DHT22;37475;43.358;1.248;2023-07-13T14:39:23;24.60;61.10
51383;DHT22;37475;43.358;1.248;2023-07-13T14:41:55;24.40;59.50
51383;DHT22;37475;43.358;1.248;2023-07-13T14:44:25;24.40;62.10
51383;DHT22;37475;43.358;1.248;2023-07-13T14:46:56;24.20;62.70
51383;DHT22;37475;43.358;1.248;2023-07-13T14:52:17;24.30;61.20
51383;DHT22;37475;43.358;1.248;2023-07-13T14:54:45;24.30;59.60
51383;DHT22;37475;43.358;1.248;2023-07-13T14:57:13;24.30;60.60
51383;DHT22;37475;43.358;1.248;2023-07-13T14:59:40;24.20;62.20
51383;DHT22;37475;43.358;1.248;2023-07-13T15:02:35;24.50;60.40
51383;DHT22;37475;43.358;1.248;2023-07-13T15:05:16;24.30;60.70
51383;DHT22;37475;43.358;1.248;2023-07-13T15:07:47;24.20;60.90
51383;DHT22;37475;43.358;1.248;2023-07-13T15:10:19;24.40;60.70
51383;DHT22;37475;43.358;1.248;2023-07-13T15:12:46;24.40;61.50
51383;DHT22;37475;43.358;1.248;2023-07-13T15:15:12;24.20;61.70
51383;DHT22;37475;43.358;1.248;2023-07-13T15:17:44;23.90;62.50
51383;DHT22;37475;43.358;1.248;2023-07-13T15:20:33;23.90;63.20
51383;DHT22;37475;43.358;1.248;2023-07-13T15:23:01;24.10;63.20
51383;DHT22;37475;43.358;1.248;2023-07-13T15:25:30;24.00;62.20
51383;DHT22;37475;43.358;1.248;2023-07-13T15:27:58;24.00;62.90
51383;DHT22;37475;43.358;1.248;2023-07-13T15:30:45;24.00;62.70
51383;DHT22;37475;43.358;1.248;2023-07-13T15:33:21;24.10;63.50
51383;DHT22;37475;43.358;1.248;2023-07-13T15:35:52;24.20;61.30
51383;DHT22;37475;43.358;1.248;2023-07-13T15:38:25;24.20;63.30
51383;DHT22;37475;43.358;1.248;2023-07-13T15:40:53;23.80;63.10
51383;DHT22;37475;43.358;1.248;2023-07-13T15:43:19;24.00;62.50
51383;DHT22;37475;43.358;1.248;2023-07-13T15:45:47;23.90;63.00
51383;DHT22;37475;43.358;1.248;2023-07-13T15:48:14;24.00;64.10
51383;DHT22;37475;43.358;1.248;2023-07-13T15:50:53;24.20;64.70
51383;DHT22;37475;43.358;1.248;2023-07-13T15:53:25;24.40;62.70
51383;DHT22;37475;43.358;1.248;2023-07-13T15:55:54;24.30;61.30
51383;DHT22;37475;43.358;1.248;2023-07-13T15:58:21;24.80;62.10
51383;DHT22;37475;43.358;1.248;2023-07-13T16:00:47;25.00;58.80
51383;DHT22;37475;43.358;1.248;2023-07-13T16:03:17;24.80;60.50
51383;DHT22;37475;43.358;1.248;2023-07-13T16:05:45;25.20;58.20
51383;DHT22;37475;43.358;1.248;2023-07-13T16:08:24;25.70;58.30
51383;DHT22;37475;43.358;1.248;2023-07-13T16:10:52;26.70;54.80
51383;DHT22;37475;43.358;1.248;2023-07-13T16:13:19;26.70;55.00
51383;DHT22;37475;43.358;1.248;2023-07-13T16:15:46;26.40;55.60
51383;DHT22;37475;43.358;1.248;2023-07-13T16:18:14;26.40;57.00
51383;DHT22;37475;43.358;1.248;2023-07-13T16:20:45;26.10;56.30
51383;DHT22;37475;43.358;1.248;2023-07-13T16:23:14;26.10;55.80
51383;DHT22;37475;43.358;1.248;2023-07-13T16:25:41;25.90;56.50
51383;DHT22;37475;43.358;1.248;2023-07-13T16:28:12;26.30;56.60
51383;DHT22;37475;43.358;1.248;2023-07-13T16:30:39;26.40;55.00
51383;DHT22;37475;43.358;1.248;2023-07-13T16:33:06;27.00;55.00
51383;DHT22;37475;43.358;1.248;2023-07-13T16:35:41;26.40;55.40
51383;DHT22;37475;43.358;1.248;2023-07-13T16:38:16;26.60;54.60
51383;DHT22;37475;43.358;1.248;2023-07-13T16:40:46;26.00;56.30
51383;DHT22;37475;43.358;1.248;2023-07-13T16:43:14;25.90;57.80